Aérodrome :
LOGIN :

S'inscrire | Disclaimer

   EN    FR    IT 

 










Légende :    VFR   VFR Marginal   IFR   IFR Intensif   IFR Très Intensif
Visi : 
Plafond : 
>= 8 km
>= 3000ft
5 à 8 km
1000 à 3000 ft
1500m à 5 km
500 à 1000 ft
800 à 1500m
200 à 500 ft
< 800m
< 200 ft
Symboles :   Orages  Brouillard  Fortes neiges  Fortes précipitations  Vent > 20 kt
SIGMETs :   Divers  Orages  Givrage  Turbulence  Onde Orograph.  Cendres Volcan.






- Altitude de l'aérodrome : 44 ft
- Code IATA : SOU


EGHI - Southampton

DERNIER METAR :
  • 281220Z 03017G27KT 360V070 CAVOK 12/02 Q1027

METARs EXPIRÉS :
  • 281150Z 04015G28KT 360V080 CAVOK 12/01 Q1027
  • 281120Z 03019G31KT 360V070 CAVOK 12/01 Q1027
  • 281050Z 04013G25KT 350V080 CAVOK 12/01 Q1027
  • 281020Z 03014G26KT 340V080 CAVOK 11/01 Q1027
  • 280950Z 03015G28KT 360V070 CAVOK 10/00 Q1026

TAF TAF EGHI
Valide du 28 à 12h jusqu'au 28 à 21h UTC


281058Z 2812/2821 04018G28KT CAVOK
PROB30
TEMPO 2812/2815 BKN035
BECMG 2818/2821 BKN026
ATIS : +44 23 8062 7103



MET'MAP, la Météo Aéronautique d'un coup d'oeil ! - Copyright ORBIFLY Décembre 2007 - Disclaimer

ORBIFLY MET'MAP TEAM :

Programmation & Développement : Alexandra Zaïnal
Sur une idée originale de : Baudouin d'Aumeries
Assistance à la programmation : Marc-Olivier Méhu
Soutien technique & logistique : Manuel Goepfert

Contact : metmap@orbifly.com




SOURCES & CREDITS :

   NOAA